sensor_id;sensor_type;location;lat;lon;timestamp;pressure;altitude;pressure_sealevel;temperature;humidity
45523;BME280;31254;51.680;5.394;2024-03-17T00:00:50;102323.09;;;6.49;86.53
45523;BME280;31254;51.680;5.394;2024-03-17T00:03:16;102317.06;;;6.44;86.00
45523;BME280;31254;51.680;5.394;2024-03-17T00:05:41;102319.41;;;6.50;85.83
45523;BME280;31254;51.680;5.394;2024-03-17T00:08:07;102321.41;;;6.46;86.12
45523;BME280;31254;51.680;5.394;2024-03-17T00:10:34;102281.38;;;6.19;85.85
45523;BME280;31254;51.680;5.394;2024-03-17T00:13:00;102220.13;;;5.83;85.80
45523;BME280;31254;51.680;5.394;2024-03-17T00:15:26;102226.50;;;5.82;85.78
45523;BME280;31254;51.680;5.394;2024-03-17T00:17:52;102314.06;;;6.32;85.67
45523;BME280;31254;51.680;5.394;2024-03-17T00:20:18;102225.88;;;5.77;85.93
45523;BME280;31254;51.680;5.394;2024-03-17T00:22:50;102279.41;;;6.06;85.92
45523;BME280;31254;51.680;5.394;2024-03-17T00:25:18;102300.16;;;6.22;85.58
45523;BME280;31254;51.680;5.394;2024-03-17T00:27:45;102299.47;;;6.19;85.61
45523;BME280;31254;51.680;5.394;2024-03-17T00:30:11;102202.72;;;5.56;85.56
45523;BME280;31254;51.680;5.394;2024-03-17T00:32:41;102307.69;;;6.17;85.22
45523;BME280;31254;51.680;5.394;2024-03-17T00:35:09;102293.78;;;6.08;85.47
45523;BME280;31254;51.680;5.394;2024-03-17T00:37:36;102219.50;;;5.62;85.56
45523;BME280;31254;51.680;5.394;2024-03-17T00:40:02;102303.56;;;6.10;85.51
45523;BME280;31254;51.680;5.394;2024-03-17T00:42:29;102311.06;;;6.05;85.52
45523;BME280;31254;51.680;5.394;2024-03-17T00:44:55;102290.22;;;5.90;85.17
45523;BME280;31254;51.680;5.394;2024-03-17T00:47:21;102307.56;;;6.03;85.43
45523;BME280;31254;51.680;5.394;2024-03-17T00:49:47;102308.59;;;6.00;85.36
45523;BME280;31254;51.680;5.394;2024-03-17T00:52:16;102285.66;;;5.90;84.98
45523;BME280;31254;51.680;5.394;2024-03-17T00:54:42;102183.28;;;5.31;84.86
45523;BME280;31254;51.680;5.394;2024-03-17T00:57:07;102284.63;;;5.93;85.13
45523;BME280;31254;51.680;5.394;2024-03-17T00:59:33;102306.34;;;6.09;84.76
45523;BME280;31254;51.680;5.394;2024-03-17T01:01:59;102292.03;;;6.07;84.58
45523;BME280;31254;51.680;5.394;2024-03-17T01:04:25;102293.94;;;6.04;84.55
45523;BME280;31254;51.680;5.394;2024-03-17T01:06:50;102293.78;;;6.08;84.30
45523;BME280;31254;51.680;5.394;2024-03-17T01:09:16;102193.16;;;5.48;84.50
45523;BME280;31254;51.680;5.394;2024-03-17T01:11:41;102192.31;;;5.48;84.50
45523;BME280;31254;51.680;5.394;2024-03-17T01:14:07;102211.78;;;5.55;84.39
45523;BME280;31254;51.680;5.394;2024-03-17T01:16:33;102270.84;;;5.97;84.56
45523;BME280;31254;51.680;5.394;2024-03-17T01:18:59;102281.72;;;5.96;84.63
45523;BME280;31254;51.680;5.394;2024-03-17T01:21:25;102179.75;;;5.29;85.11
45523;BME280;31254;51.680;5.394;2024-03-17T01:23:50;102155.09;;;5.18;85.25
45523;BME280;31254;51.680;5.394;2024-03-17T01:26:16;102212.56;;;5.57;85.35
45523;BME280;31254;51.680;5.394;2024-03-17T01:28:42;102177.69;;;5.35;85.23
45523;BME280;31254;51.680;5.394;2024-03-17T01:31:08;102258.91;;;5.84;85.32
45523;BME280;31254;51.680;5.394;2024-03-17T01:33:35;102259.00;;;5.82;85.29
45523;BME280;31254;51.680;5.394;2024-03-17T01:36:01;102173.31;;;5.32;85.32
45523;BME280;31254;51.680;5.394;2024-03-17T01:38:26;102154.78;;;5.24;84.98
45523;BME280;31254;51.680;5.394;2024-03-17T01:40:52;102259.94;;;5.81;85.28
45523;BME280;31254;51.680;5.394;2024-03-17T01:43:18;102257.69;;;5.74;85.21
45523;BME280;31254;51.680;5.394;2024-03-17T01:45:43;102241.53;;;5.72;84.95
45523;BME280;31254;51.680;5.394;2024-03-17T01:48:13;102224.19;;;5.59;85.05
45523;BME280;31254;51.680;5.394;2024-03-17T01:50:41;102156.94;;;5.18;85.18
45523;BME280;31254;51.680;5.394;2024-03-17T01:53:09;102124.69;;;4.97;85.18
45523;BME280;31254;51.680;5.394;2024-03-17T01:55:41;102152.84;;;5.10;85.08
45523;BME280;31254;51.680;5.394;2024-03-17T01:58:08;102241.31;;;5.59;85.33
45523;BME280;31254;51.680;5.394;2024-03-17T02:00:36;102141.66;;;5.01;85.23
45523;BME280;31254;51.680;5.394;2024-03-17T02:03:06;102213.50;;;5.40;85.86
45523;BME280;31254;51.680;5.394;2024-03-17T02:05:34;102153.50;;;4.98;85.61
45523;BME280;31254;51.680;5.394;2024-03-17T02:08:00;102143.16;;;4.89;85.57
45523;BME280;31254;51.680;5.394;2024-03-17T02:10:27;102167.47;;;5.06;85.96
45523;BME280;31254;51.680;5.394;2024-03-17T02:12:53;102219.06;;;5.37;86.02
45523;BME280;31254;51.680;5.394;2024-03-17T02:15:19;102226.19;;;5.55;85.66
45523;BME280;31254;51.680;5.394;2024-03-17T02:17:44;102220.44;;;5.61;85.92
45523;BME280;31254;51.680;5.394;2024-03-17T02:20:10;102135.22;;;5.19;85.61
45523;BME280;31254;51.680;5.394;2024-03-17T02:22:37;102196.00;;;5.63;86.01
45523;BME280;31254;51.680;5.394;2024-03-17T02:25:03;102219.88;;;5.88;86.15
45523;BME280;31254;51.680;5.394;2024-03-17T02:27:29;102144.59;;;5.45;86.04
45523;BME280;31254;51.680;5.394;2024-03-17T02:29:55;102226.22;;;6.04;86.08
45523;BME280;31254;51.680;5.394;2024-03-17T02:32:21;102212.25;;;6.12;85.89
45523;BME280;31254;51.680;5.394;2024-03-17T02:34:52;102215.28;;;6.22;86.06
45523;BME280;31254;51.680;5.394;2024-03-17T02:37:18;102206.78;;;6.28;86.18
45523;BME280;31254;51.680;5.394;2024-03-17T02:39:44;102094.59;;;5.68;85.72
45523;BME280;31254;51.680;5.394;2024-03-17T02:42:10;102194.56;;;6.37;86.02
45523;BME280;31254;51.680;5.394;2024-03-17T02:44:37;102220.06;;;6.49;86.51
45523;BME280;31254;51.680;5.394;2024-03-17T02:47:04;102204.38;;;6.54;86.33
45523;BME280;31254;51.680;5.394;2024-03-17T02:49:32;102203.16;;;6.59;86.47
45523;BME280;31254;51.680;5.394;2024-03-17T02:52:08;102080.28;;;5.98;86.50
45523;BME280;31254;51.680;5.394;2024-03-17T02:54:37;102197.97;;;6.71;86.43
45523;BME280;31254;51.680;5.394;2024-03-17T02:57:04;102177.59;;;6.64;86.45
45523;BME280;31254;51.680;5.394;2024-03-17T02:59:30;102163.00;;;6.66;86.38
45523;BME280;31254;51.680;5.394;2024-03-17T03:01:57;102176.19;;;6.72;86.53
45523;BME280;31254;51.680;5.394;2024-03-17T03:04:23;102104.78;;;6.27;86.65
45523;BME280;31254;51.680;5.394;2024-03-17T03:06:49;102196.09;;;6.87;86.64
45523;BME280;31254;51.680;5.394;2024-03-17T03:09:14;102207.78;;;6.88;86.81
45523;BME280;31254;51.680;5.394;2024-03-17T03:11:46;102204.91;;;6.91;86.74
45523;BME280;31254;51.680;5.394;2024-03-17T03:14:12;102102.47;;;6.35;86.94
45523;BME280;31254;51.680;5.394;2024-03-17T03:16:38;102086.31;;;6.34;86.82
45523;BME280;31254;51.680;5.394;2024-03-17T03:19:04;102194.34;;;7.01;86.65
45523;BME280;31254;51.680;5.394;2024-03-17T03:21:31;102200.56;;;7.03;86.59
45523;BME280;31254;51.680;5.394;2024-03-17T03:23:56;102183.97;;;6.93;86.85
45523;BME280;31254;51.680;5.394;2024-03-17T03:26:22;102118.75;;;6.66;86.58
45523;BME280;31254;51.680;5.394;2024-03-17T03:28:49;102182.75;;;7.13;86.72
45523;BME280;31254;51.680;5.394;2024-03-17T03:31:15;102171.00;;;7.12;86.46
45523;BME280;31254;51.680;5.394;2024-03-17T03:33:42;102092.56;;;6.65;85.89
45523;BME280;31254;51.680;5.394;2024-03-17T03:36:10;102097.63;;;6.71;86.29
45523;BME280;31254;51.680;5.394;2024-03-17T03:38:35;102186.53;;;7.25;86.39
45523;BME280;31254;51.680;5.394;2024-03-17T03:41:13;102101.03;;;6.74;86.31
45523;BME280;31254;51.680;5.394;2024-03-17T03:43:39;102091.31;;;6.70;86.06
45523;BME280;31254;51.680;5.394;2024-03-17T03:46:05;102171.22;;;7.24;86.42
45523;BME280;31254;51.680;5.394;2024-03-17T03:48:31;102163.56;;;7.16;86.24
45523;BME280;31254;51.680;5.394;2024-03-17T03:50:57;102085.78;;;6.72;86.68
45523;BME280;31254;51.680;5.394;2024-03-17T03:53:24;102148.25;;;7.15;86.50
45523;BME280;31254;51.680;5.394;2024-03-17T03:55:49;102157.63;;;7.24;86.41
45523;BME280;31254;51.680;5.394;2024-03-17T03:58:15;102105.09;;;6.96;86.90
45523;BME280;31254;51.680;5.394;2024-03-17T04:00:41;102035.03;;;6.59;86.51
45523;BME280;31254;51.680;5.394;2024-03-17T04:03:07;102140.69;;;7.20;86.71
45523;BME280;31254;51.680;5.394;2024-03-17T04:05:33;102134.00;;;7.11;86.63
45523;BME280;31254;51.680;5.394;2024-03-17T04:08:00;102068.28;;;6.77;86.97
45523;BME280;31254;51.680;5.394;2024-03-17T04:10:26;102069.53;;;6.72;86.55
45523;BME280;31254;51.680;5.394;2024-03-17T04:12:52;102134.69;;;7.15;86.70
45523;BME280;31254;51.680;5.394;2024-03-17T04:15:19;102139.34;;;7.13;86.46
45523;BME280;31254;51.680;5.394;2024-03-17T04:17:45;102119.75;;;7.08;86.74
45523;BME280;31254;51.680;5.394;2024-03-17T04:20:11;102119.06;;;7.04;86.79
45523;BME280;31254;51.680;5.394;2024-03-17T04:22:40;102084.28;;;6.82;86.72
45523;BME280;31254;51.680;5.394;2024-03-17T04:25:09;102126.34;;;7.04;86.96
45523;BME280;31254;51.680;5.394;2024-03-17T04:27:35;102032.91;;;6.50;86.77
45523;BME280;31254;51.680;5.394;2024-03-17T04:30:04;102043.38;;;6.56;86.76
45523;BME280;31254;51.680;5.394;2024-03-17T04:32:31;102120.53;;;6.95;87.35
45523;BME280;31254;51.680;5.394;2024-03-17T04:34:57;102096.28;;;6.78;87.14
45523;BME280;31254;51.680;5.394;2024-03-17T04:37:23;102021.34;;;6.32;87.18
45523;BME280;31254;51.680;5.394;2024-03-17T04:39:50;102132.22;;;6.82;87.52
45523;BME280;31254;51.680;5.394;2024-03-17T04:42:17;102111.00;;;6.74;88.11
45523;BME280;31254;51.680;5.394;2024-03-17T04:44:46;102025.97;;;6.16;87.36
45523;BME280;31254;51.680;5.394;2024-03-17T04:47:12;102032.59;;;6.10;87.36
45523;BME280;31254;51.680;5.394;2024-03-17T04:49:43;102118.91;;;6.63;87.61
45523;BME280;31254;51.680;5.394;2024-03-17T04:52:10;102105.31;;;6.48;87.66
45523;BME280;31254;51.680;5.394;2024-03-17T04:54:36;102124.88;;;6.53;87.83
45523;BME280;31254;51.680;5.394;2024-03-17T04:57:02;102124.22;;;6.50;87.73
45523;BME280;31254;51.680;5.394;2024-03-17T04:59:28;102021.94;;;5.77;88.00
45523;BME280;31254;51.680;5.394;2024-03-17T05:01:54;102110.00;;;6.30;88.16
45523;BME280;31254;51.680;5.394;2024-03-17T05:04:20;102067.91;;;6.09;88.36
45523;BME280;31254;51.680;5.394;2024-03-17T05:06:46;102097.69;;;6.25;88.34
45523;BME280;31254;51.680;5.394;2024-03-17T05:09:17;102025.22;;;5.82;88.56
45523;BME280;31254;51.680;5.394;2024-03-17T05:11:43;102117.16;;;6.31;88.26
45523;BME280;31254;51.680;5.394;2024-03-17T05:14:09;102079.72;;;6.08;88.39
45523;BME280;31254;51.680;5.394;2024-03-17T05:16:35;102015.13;;;5.54;88.58
45523;BME280;31254;51.680;5.394;2024-03-17T05:19:01;102075.94;;;5.94;88.94
45523;BME280;31254;51.680;5.394;2024-03-17T05:21:27;102112.94;;;6.11;89.15
45523;BME280;31254;51.680;5.394;2024-03-17T05:23:58;102109.44;;;6.09;89.47
45523;BME280;31254;51.680;5.394;2024-03-17T05:26:24;102107.69;;;6.08;89.51
45523;BME280;31254;51.680;5.394;2024-03-17T05:28:50;102027.28;;;5.62;89.73
45523;BME280;31254;51.680;5.394;2024-03-17T05:31:15;102124.91;;;6.07;89.43
45523;BME280;31254;51.680;5.394;2024-03-17T05:33:43;102008.59;;;5.42;89.77
45523;BME280;31254;51.680;5.394;2024-03-17T05:36:09;102105.66;;;5.96;90.10
45523;BME280;31254;51.680;5.394;2024-03-17T05:38:35;102111.34;;;6.07;89.67
45523;BME280;31254;51.680;5.394;2024-03-17T05:41:03;101971.47;;;5.28;90.09
45523;BME280;31254;51.680;5.394;2024-03-17T05:43:32;102106.75;;;6.09;90.04
45523;BME280;31254;51.680;5.394;2024-03-17T05:46:09;102096.69;;;6.11;90.10
45523;BME280;31254;51.680;5.394;2024-03-17T05:48:36;101988.44;;;5.47;89.72
45523;BME280;31254;51.680;5.394;2024-03-17T05:51:10;102015.44;;;5.63;89.91
45523;BME280;31254;51.680;5.394;2024-03-17T05:53:37;102092.44;;;6.21;89.72
45523;BME280;31254;51.680;5.394;2024-03-17T05:56:06;101997.31;;;5.65;89.92
45523;BME280;31254;51.680;5.394;2024-03-17T05:58:35;102074.81;;;6.14;89.87
45523;BME280;31254;51.680;5.394;2024-03-17T06:01:04;102095.75;;;6.27;90.03
45523;BME280;31254;51.680;5.394;2024-03-17T06:03:30;102106.06;;;6.36;89.84
45523;BME280;31254;51.680;5.394;2024-03-17T06:05:58;101990.81;;;5.68;89.99
45523;BME280;31254;51.680;5.394;2024-03-17T06:08:24;102104.69;;;6.29;90.10
45523;BME280;31254;51.680;5.394;2024-03-17T06:10:50;102115.75;;;6.40;89.97
45523;BME280;31254;51.680;5.394;2024-03-17T06:13:16;102038.47;;;6.02;90.16
45523;BME280;31254;51.680;5.394;2024-03-17T06:15:44;102117.91;;;6.49;90.38
45523;BME280;31254;51.680;5.394;2024-03-17T06:18:13;102092.72;;;6.47;89.79
45523;BME280;31254;51.680;5.394;2024-03-17T06:20:47;102077.19;;;6.35;90.29
45523;BME280;31254;51.680;5.394;2024-03-17T06:23:14;102045.25;;;6.26;90.47
45523;BME280;31254;51.680;5.394;2024-03-17T06:25:41;102119.72;;;6.79;89.74
45523;BME280;31254;51.680;5.394;2024-03-17T06:28:08;102054.97;;;6.58;89.68
45523;BME280;31254;51.680;5.394;2024-03-17T06:30:35;102097.34;;;7.04;89.33
45523;BME280;31254;51.680;5.394;2024-03-17T06:33:01;102105.59;;;7.31;89.25
45523;BME280;31254;51.680;5.394;2024-03-17T06:35:27;102116.00;;;7.81;88.90
45523;BME280;31254;51.680;5.394;2024-03-17T06:37:59;102092.03;;;7.73;88.53
45523;BME280;31254;51.680;5.394;2024-03-17T06:40:25;102120.59;;;7.93;88.90
45523;BME280;31254;51.680;5.394;2024-03-17T06:42:50;102122.34;;;7.94;88.48
45523;BME280;31254;51.680;5.394;2024-03-17T06:45:17;102093.38;;;7.80;88.58
45523;BME280;31254;51.680;5.394;2024-03-17T06:47:46;102018.22;;;7.39;88.38
45523;BME280;31254;51.680;5.394;2024-03-17T06:50:12;102113.81;;;8.00;88.13
45523;BME280;31254;51.680;5.394;2024-03-17T06:52:37;102112.59;;;8.32;88.31
45523;BME280;31254;51.680;5.394;2024-03-17T06:55:04;102095.88;;;9.54;86.00
45523;BME280;31254;51.680;5.394;2024-03-17T06:57:30;102077.25;;;10.68;83.44
45523;BME280;31254;51.680;5.394;2024-03-17T06:59:59;102100.38;;;11.21;82.42
45523;BME280;31254;51.680;5.394;2024-03-17T07:02:25;102095.66;;;10.89;82.75
45523;BME280;31254;51.680;5.394;2024-03-17T07:04:51;102109.22;;;10.55;83.32
45523;BME280;31254;51.680;5.394;2024-03-17T07:07:16;101976.59;;;9.70;82.75
45523;BME280;31254;51.680;5.394;2024-03-17T07:09:42;102109.06;;;10.45;82.66
45523;BME280;31254;51.680;5.394;2024-03-17T07:12:09;102076.16;;;10.35;82.24
45523;BME280;31254;51.680;5.394;2024-03-17T07:14:36;102101.03;;;10.55;82.15
45523;BME280;31254;51.680;5.394;2024-03-17T07:17:02;102028.09;;;10.21;81.64
45523;BME280;31254;51.680;5.394;2024-03-17T07:19:27;102105.94;;;10.96;81.28
45523;BME280;31254;51.680;5.394;2024-03-17T07:21:54;102087.59;;;11.10;80.19
45523;BME280;31254;51.680;5.394;2024-03-17T07:24:20;102095.56;;;11.36;79.88
45523;BME280;31254;51.680;5.394;2024-03-17T07:26:49;102091.66;;;11.61;79.68
45523;BME280;31254;51.680;5.394;2024-03-17T07:29:15;101886.09;;;10.36;79.11
45523;BME280;31254;51.680;5.394;2024-03-17T07:31:41;102099.38;;;11.44;79.37
45523;BME280;31254;51.680;5.394;2024-03-17T07:34:07;102006.75;;;10.62;79.95
45523;BME280;31254;51.680;5.394;2024-03-17T07:36:33;102011.78;;;10.33;80.72
45523;BME280;31254;51.680;5.394;2024-03-17T07:38:58;102101.28;;;10.63;80.70
45523;BME280;31254;51.680;5.394;2024-03-17T07:41:24;102079.16;;;10.43;80.84
45523;BME280;31254;51.680;5.394;2024-03-17T07:43:50;102009.53;;;10.02;80.70
45523;BME280;31254;51.680;5.394;2024-03-17T07:46:16;102066.13;;;10.36;80.97
45523;BME280;31254;51.680;5.394;2024-03-17T07:48:43;101953.41;;;9.64;80.56
45523;BME280;31254;51.680;5.394;2024-03-17T07:51:16;102071.81;;;10.33;80.96
45523;BME280;31254;51.680;5.394;2024-03-17T07:53:46;102071.38;;;10.26;81.16
45523;BME280;31254;51.680;5.394;2024-03-17T07:56:14;102027.50;;;9.94;80.92
45523;BME280;31254;51.680;5.394;2024-03-17T07:58:44;102060.31;;;10.16;80.85
45523;BME280;31254;51.680;5.394;2024-03-17T08:01:11;102034.97;;;10.03;80.75
45523;BME280;31254;51.680;5.394;2024-03-17T08:03:39;102081.53;;;10.48;80.67
45523;BME280;31254;51.680;5.394;2024-03-17T08:06:06;101959.06;;;9.85;80.15
45523;BME280;31254;51.680;5.394;2024-03-17T08:08:33;102079.22;;;10.66;79.81
45523;BME280;31254;51.680;5.394;2024-03-17T08:10:59;102005.91;;;10.26;79.83
45523;BME280;31254;51.680;5.394;2024-03-17T08:13:26;102009.00;;;10.21;79.60
45523;BME280;31254;51.680;5.394;2024-03-17T08:15:59;102000.34;;;10.28;79.69
45523;BME280;31254;51.680;5.394;2024-03-17T08:18:25;102083.84;;;10.88;79.35
45523;BME280;31254;51.680;5.394;2024-03-17T08:20:53;102089.81;;;10.93;79.45
45523;BME280;31254;51.680;5.394;2024-03-17T08:23:20;102087.47;;;11.00;78.87
45523;BME280;31254;51.680;5.394;2024-03-17T08:25:56;102091.53;;;10.94;78.89
45523;BME280;31254;51.680;5.394;2024-03-17T08:28:24;102097.88;;;10.84;79.21
45523;BME280;31254;51.680;5.394;2024-03-17T08:30:57;102049.06;;;10.56;79.11
45523;BME280;31254;51.680;5.394;2024-03-17T08:33:24;102022.34;;;10.37;78.69
45523;BME280;31254;51.680;5.394;2024-03-17T08:35:57;101994.44;;;10.34;78.82
45523;BME280;31254;51.680;5.394;2024-03-17T08:38:23;102102.22;;;10.97;78.67
45523;BME280;31254;51.680;5.394;2024-03-17T08:40:50;102096.03;;;11.07;78.74
45523;BME280;31254;51.680;5.394;2024-03-17T08:43:16;102012.97;;;10.64;78.71
45523;BME280;31254;51.680;5.394;2024-03-17T08:45:42;102016.34;;;10.79;78.50
45523;BME280;31254;51.680;5.394;2024-03-17T08:48:08;102083.97;;;11.43;78.42
45523;BME280;31254;51.680;5.394;2024-03-17T08:50:36;102018.53;;;11.30;77.70
45523;BME280;31254;51.680;5.394;2024-03-17T08:53:02;102092.00;;;11.79;77.77
45523;BME280;31254;51.680;5.394;2024-03-17T08:55:27;102087.78;;;11.97;77.59
45523;BME280;31254;51.680;5.394;2024-03-17T08:57:53;102002.84;;;11.66;77.09
45523;BME280;31254;51.680;5.394;2024-03-17T09:00:19;102089.13;;;12.35;76.38
45523;BME280;31254;51.680;5.394;2024-03-17T09:02:44;102079.34;;;12.54;75.79
45523;BME280;31254;51.680;5.394;2024-03-17T09:05:10;101996.66;;;12.18;75.54
45523;BME280;31254;51.680;5.394;2024-03-17T09:07:38;102016.91;;;12.48;74.72
45523;BME280;31254;51.680;5.394;2024-03-17T09:10:05;102001.59;;;12.66;74.19
45523;BME280;31254;51.680;5.394;2024-03-17T09:12:31;101953.69;;;12.82;73.46
45523;BME280;31254;51.680;5.394;2024-03-17T09:14:57;101975.75;;;13.21;72.97
45523;BME280;31254;51.680;5.394;2024-03-17T09:17:23;102040.41;;;13.83;72.02
45523;BME280;31254;51.680;5.394;2024-03-17T09:19:49;101978.59;;;13.60;71.64
45523;BME280;31254;51.680;5.394;2024-03-17T09:22:14;101996.63;;;13.52;71.65
45523;BME280;31254;51.680;5.394;2024-03-17T09:24:40;102062.03;;;13.86;71.92
45523;BME280;31254;51.680;5.394;2024-03-17T09:27:06;102067.84;;;14.03;71.68
45523;BME280;31254;51.680;5.394;2024-03-17T09:29:35;101981.19;;;13.51;71.37
45523;BME280;31254;51.680;5.394;2024-03-17T09:32:01;102059.34;;;13.96;71.71
45523;BME280;31254;51.680;5.394;2024-03-17T09:34:27;101992.31;;;13.60;71.47
45523;BME280;31254;51.680;5.394;2024-03-17T09:36:52;101979.75;;;13.67;70.91
45523;BME280;31254;51.680;5.394;2024-03-17T09:39:18;102050.50;;;14.12;71.13
45523;BME280;31254;51.680;5.394;2024-03-17T09:41:46;102008.06;;;14.06;70.36
45523;BME280;31254;51.680;5.394;2024-03-17T09:44:12;101959.06;;;14.31;69.11
45523;BME280;31254;51.680;5.394;2024-03-17T09:46:41;102024.50;;;15.03;68.60
45523;BME280;31254;51.680;5.394;2024-03-17T09:49:14;101978.19;;;15.08;67.86
45523;BME280;31254;51.680;5.394;2024-03-17T09:51:42;102035.28;;;15.79;66.86
45523;BME280;31254;51.680;5.394;2024-03-17T09:54:18;102017.38;;;15.65;66.61
45523;BME280;31254;51.680;5.394;2024-03-17T09:56:47;101977.00;;;15.20;66.89
45523;BME280;31254;51.680;5.394;2024-03-17T09:59:12;102033.97;;;15.28;67.35
45523;BME280;31254;51.680;5.394;2024-03-17T10:01:38;102014.22;;;15.05;67.57
45523;BME280;31254;51.680;5.394;2024-03-17T10:04:04;102030.16;;;15.29;67.26
45523;BME280;31254;51.680;5.394;2024-03-17T10:06:30;102046.44;;;15.78;66.53
45523;BME280;31254;51.680;5.394;2024-03-17T10:08:59;102031.22;;;16.45;64.88
45523;BME280;31254;51.680;5.394;2024-03-17T10:11:33;101857.94;;;17.70;60.07
45523;BME280;31254;51.680;5.394;2024-03-17T10:14:03;102029.75;;;19.83;58.03
45523;BME280;31254;51.680;5.394;2024-03-17T10:16:31;102025.59;;;21.61;54.72
45523;BME280;31254;51.680;5.394;2024-03-17T10:19:11;101933.47;;;20.61;54.98
45523;BME280;31254;51.680;5.394;2024-03-17T10:21:38;102030.69;;;20.98;56.29
45523;BME280;31254;51.680;5.394;2024-03-17T10:24:08;101990.38;;;21.47;53.74
45523;BME280;31254;51.680;5.394;2024-03-17T10:26:44;102010.94;;;22.82;50.75
45523;BME280;31254;51.680;5.394;2024-03-17T10:29:31;102010.91;;;22.47;50.83
45523;BME280;31254;51.680;5.394;2024-03-17T10:32:02;102014.13;;;22.07;51.79
45523;BME280;31254;51.680;5.394;2024-03-17T10:34:29;102026.56;;;21.53;52.42
45523;BME280;31254;51.680;5.394;2024-03-17T10:37:17;101926.44;;;20.21;53.37
45523;BME280;31254;51.680;5.394;2024-03-17T10:39:46;101984.94;;;20.03;53.40
45523;BME280;31254;51.680;5.394;2024-03-17T10:42:29;101903.13;;;19.23;53.51
45523;BME280;31254;51.680;5.394;2024-03-17T10:44:57;101921.06;;;18.95;54.18
45523;BME280;31254;51.680;5.394;2024-03-17T10:47:25;101884.75;;;18.51;54.33
45523;BME280;31254;51.680;5.394;2024-03-17T10:49:53;101893.69;;;18.69;53.86
45523;BME280;31254;51.680;5.394;2024-03-17T10:52:20;101997.78;;;19.41;53.33
45523;BME280;31254;51.680;5.394;2024-03-17T10:54:50;101941.66;;;19.24;53.02
45523;BME280;31254;51.680;5.394;2024-03-17T11:00:04;101998.31;;;19.36;53.72
45523;BME280;31254;51.680;5.394;2024-03-17T11:02:32;101909.56;;;18.67;54.44
45523;BME280;31254;51.680;5.394;2024-03-17T11:05:16;102009.00;;;19.00;54.70
45523;BME280;31254;51.680;5.394;2024-03-17T11:07:43;101997.81;;;18.69;55.22
45523;BME280;31254;51.680;5.394;2024-03-17T11:10:16;101970.41;;;18.34;55.43
45523;BME280;31254;51.680;5.394;2024-03-17T11:12:52;101990.94;;;18.32;55.59
45523;BME280;31254;51.680;5.394;2024-03-17T11:23:28;101999.28;;;17.48;57.13
45523;BME280;31254;51.680;5.394;2024-03-17T11:25:55;101904.72;;;16.78;57.50
45523;BME280;31254;51.680;5.394;2024-03-17T11:34:04;101951.22;;;17.08;57.98
45523;BME280;31254;51.680;5.394;2024-03-17T11:36:40;102001.94;;;17.23;58.17
45523;BME280;31254;51.680;5.394;2024-03-17T11:39:09;101912.19;;;16.60;58.56
45523;BME280;31254;51.680;5.394;2024-03-17T11:42:04;102005.25;;;17.27;58.15
45523;BME280;31254;51.680;5.394;2024-03-17T11:44:36;102001.00;;;17.06;58.68
45523;BME280;31254;51.680;5.394;2024-03-17T11:47:06;101996.44;;;16.89;58.93
45523;BME280;31254;51.680;5.394;2024-03-17T11:49:32;101998.09;;;16.81;59.14
45523;BME280;31254;51.680;5.394;2024-03-17T11:52:09;101904.72;;;16.18;59.29
45523;BME280;31254;51.680;5.394;2024-03-17T11:54:37;101952.28;;;16.28;59.33
45523;BME280;31254;51.680;5.394;2024-03-17T11:57:08;101914.78;;;15.83;60.18
45523;BME280;31254;51.680;5.394;2024-03-17T11:59:38;101715.75;;;14.68;59.76
45523;BME280;31254;51.680;5.394;2024-03-17T12:02:29;101994.47;;;16.11;60.26
45523;BME280;31254;51.680;5.394;2024-03-17T12:05:00;101920.81;;;15.68;60.25
45523;BME280;31254;51.680;5.394;2024-03-17T12:07:25;101956.22;;;15.81;60.49
45523;BME280;31254;51.680;5.394;2024-03-17T12:09:54;101981.03;;;15.89;60.68
45523;BME280;31254;51.680;5.394;2024-03-17T12:12:25;101882.31;;;15.32;60.72
45523;BME280;31254;51.680;5.394;2024-03-17T12:14:56;101925.34;;;15.60;60.64
45523;BME280;31254;51.680;5.394;2024-03-17T12:17:24;101964.50;;;15.71;60.92
45523;BME280;31254;51.680;5.394;2024-03-17T12:19:53;101972.44;;;15.75;61.33
45523;BME280;31254;51.680;5.394;2024-03-17T12:22:20;101896.66;;;15.26;61.50
45523;BME280;31254;51.680;5.394;2024-03-17T12:24:54;101967.56;;;15.68;61.58
45523;BME280;31254;51.680;5.394;2024-03-17T12:27:22;101942.41;;;15.45;61.96
45523;BME280;31254;51.680;5.394;2024-03-17T12:29:49;101905.06;;;15.25;61.91
45523;BME280;31254;51.680;5.394;2024-03-17T12:32:17;101945.88;;;15.47;62.32
45523;BME280;31254;51.680;5.394;2024-03-17T12:34:45;101949.69;;;15.36;62.40
45523;BME280;31254;51.680;5.394;2024-03-17T12:37:19;101897.09;;;15.04;62.56
45523;BME280;31254;51.680;5.394;2024-03-17T12:39:48;101834.84;;;14.67;62.76
45523;BME280;31254;51.680;5.394;2024-03-17T12:42:16;101837.47;;;14.58;62.94
45523;BME280;31254;51.680;5.394;2024-03-17T12:44:50;101931.22;;;15.29;62.62
45523;BME280;31254;51.680;5.394;2024-03-17T12:47:21;101912.97;;;15.10;62.58
45523;BME280;31254;51.680;5.394;2024-03-17T12:49:51;101882.97;;;14.98;62.91
45523;BME280;31254;51.680;5.394;2024-03-17T12:52:19;101923.28;;;15.26;63.34
45523;BME280;31254;51.680;5.394;2024-03-17T12:55:06;101922.03;;;15.38;62.94
45523;BME280;31254;51.680;5.394;2024-03-17T12:57:52;101920.56;;;15.44;63.06
45523;BME280;31254;51.680;5.394;2024-03-17T13:00:37;101906.78;;;15.26;63.19
45523;BME280;31254;51.680;5.394;2024-03-17T13:05:29;101896.88;;;15.15;63.46
45523;BME280;31254;51.680;5.394;2024-03-17T13:07:55;101895.53;;;15.19;63.46
45523;BME280;31254;51.680;5.394;2024-03-17T13:10:23;101909.00;;;15.40;63.56
45523;BME280;31254;51.680;5.394;2024-03-17T13:13:01;101873.25;;;15.22;63.64
45523;BME280;31254;51.680;5.394;2024-03-17T13:15:28;101808.31;;;15.03;63.35
45523;BME280;31254;51.680;5.394;2024-03-17T13:17:58;101812.31;;;15.09;63.09